Time;durP1;ratioP1;P1;durP2;ratioP2;P2;SDS_P1;SDS_P2;PMS_P1;PMS_P2;Temp;Humidity;BMP_temperature;BMP_pressure;BME280_temperature;BME280_humidity;BME280_pressure;Samples;Min_cycle;Max_cycle;Signal;HPM_P1;HPM_P2
2023/10/06 00:03:59;;;;;;;5.13;1.90;;;11.20;1.00;;;;;;10441451;28;20230;-78
2023/10/06 00:09:28;;;;;;;4.20;1.90;;;11.00;1.00;;;;;;10436784;28;20264;-78
2023/10/06 00:14:49;;;;;;;4.33;1.97;;;11.00;1.00;;;;;;10437836;28;20224;-76
2023/10/06 00:20:20;;;;;;;3.97;1.67;;;10.90;1.00;;;;;;10446427;28;20207;-78
2023/10/06 00:25:42;;;;;;;4.30;1.40;;;11.30;1.00;;;;;;10437533;28;20261;-79
2023/10/06 00:31:08;;;;;;;2.80;1.50;;;10.90;1.00;;;;;;10436460;28;20205;-77
2023/10/06 00:36:30;;;;;;;3.10;1.30;;;10.90;1.00;;;;;;10437229;28;20291;-77
2023/10/06 00:41:56;;;;;;;6.20;1.30;;;10.90;1.00;;;;;;10437025;28;20190;-76
2023/10/06 00:47:17;;;;;;;2.30;1.20;;;10.90;1.00;;;;;;10417075;28;20197;-75
2023/10/06 00:52:40;;;;;;;3.07;1.20;;;10.90;1.00;;;;;;10408718;28;20270;-78
2023/10/06 00:58:01;;;;;;;2.40;1.23;;;10.90;1.00;;;;;;10395720;28;20245;-79
2023/10/06 01:03:25;;;;;;;3.43;1.23;;;11.10;1.00;;;;;;10437917;28;20299;-78
2023/10/06 01:08:52;;;;;;;3.20;1.67;;;10.90;1.00;;;;;;10449366;28;20260;-76
2023/10/06 01:14:16;;;;;;;5.20;1.23;;;10.80;1.00;;;;;;10435443;28;20224;-78
2023/10/06 01:19:43;;;;;;;3.50;1.27;;;11.50;1.00;;;;;;10434761;28;20262;-80
2023/10/06 01:25:12;;;;;;;4.17;1.10;;;10.90;1.00;;;;;;10436125;28;20210;-77
2023/10/06 01:30:33;;;;;;;2.17;1.13;;;10.90;1.00;;;;;;10426590;28;20229;-76
2023/10/06 01:35:55;;;;;;;1.57;1.13;;;10.90;1.00;;;;;;10443059;28;20264;-75
2023/10/06 01:41:16;;;;;;;2.40;1.30;;;10.80;1.00;;;;;;10443167;28;20358;-76
2023/10/06 01:46:38;;;;;;;2.50;1.00;;;10.80;1.00;;;;;;10433704;28;20199;-75
2023/10/06 01:52:07;;;;;;;2.80;1.20;;;10.70;1.00;;;;;;10419169;28;20449;-75
2023/10/06 01:57:29;;;;;;;2.73;1.57;;;10.60;1.00;;;;;;10443427;28;20226;-78
2023/10/06 02:02:50;;;;;;;2.47;1.43;;;10.60;1.00;;;;;;10469168;28;20376;-76
2023/10/06 02:08:21;;;;;;;5.67;1.40;;;10.50;1.00;;;;;;10442832;28;20271;-76
2023/10/06 02:13:42;;;;;;;4.90;1.40;;;10.50;1.00;;;;;;10428154;28;20381;-76
2023/10/06 02:19:08;;;;;;;3.00;1.27;;;10.50;1.00;;;;;;10440331;28;20209;-76
2023/10/06 02:24:30;;;;;;;4.23;1.50;;;10.60;1.00;;;;;;10442416;28;20213;-79
2023/10/06 02:29:51;;;;;;;2.53;1.20;;;10.40;1.00;;;;;;10441924;28;20274;-75
2023/10/06 02:35:17;;;;;;;2.03;0.93;;;10.40;1.00;;;;;;10440231;28;20242;-79
2023/10/06 02:40:48;;;;;;;3.23;1.53;;;10.50;1.00;;;;;;10441024;28;20193;-75
2023/10/06 02:46:10;;;;;;;4.00;2.07;;;10.40;99.90;;;;;;10439943;28;20221;-76
2023/10/06 02:51:47;;;;;;;4.63;1.63;;;10.50;1.00;;;;;;10400422;28;20541;-79
2023/10/06 02:57:10;;;;;;;3.43;1.30;;;10.40;1.00;;;;;;10399915;28;20296;-79
2023/10/06 03:02:34;;;;;;;7.93;2.87;;;10.50;1.00;;;;;;10428101;28;20273;-75
2023/10/06 03:07:56;;;;;;;14.37;5.90;;;10.50;1.00;;;;;;10441960;28;20312;-76
2023/10/06 03:13:24;;;;;;;14.17;7.57;;;10.50;1.00;;;;;;10467478;28;20193;-76
2023/10/06 03:18:47;;;;;;;10.37;6.17;;;10.50;1.00;;;;;;10452579;28;20400;-76
2023/10/06 03:24:15;;;;;;;8.23;4.40;;;10.50;1.00;;;;;;10440118;28;20360;-76
2023/10/06 03:29:55;;;;;;;21.57;11.17;;;10.50;1.00;;;;;;10424469;28;20207;-76
2023/10/06 03:35:35;;;;;;;8.23;4.43;;;;;;;;;;10440411;28;20264;-76
2023/10/06 03:46:22;;;;;;;7.10;2.80;;;10.50;1.00;;;;;;10441071;28;20252;-77
2023/10/06 03:51:44;;;;;;;3.60;2.40;;;10.50;1.00;;;;;;10397228;28;20190;-76
2023/10/06 03:57:05;;;;;;;5.97;2.40;;;10.40;1.00;;;;;;10397280;28;20230;-76
2023/10/06 04:02:27;;;;;;;4.57;2.53;;;10.40;1.00;;;;;;10438140;28;20225;-77
2023/10/06 04:07:49;;;;;;;5.90;3.00;;;10.40;1.00;;;;;;10423059;28;20224;-76
2023/10/06 04:13:11;;;;;;;6.20;3.57;;;10.40;1.00;;;;;;10436930;28;20365;-79
2023/10/06 04:18:32;;;;;;;6.37;3.27;;;10.40;1.00;;;;;;10436258;28;20226;-79
2023/10/06 04:23:53;;;;;;;7.90;3.47;;;10.40;1.00;;;;;;10436845;28;20283;-78
2023/10/06 04:29:15;;;;;;;6.30;3.33;;;10.50;1.00;;;;;;10437411;28;20194;-77
2023/10/06 04:34:36;;;;;;;6.73;3.20;;;10.50;1.00;;;;;;10435245;28;20447;-76
2023/10/06 04:39:58;;;;;;;9.53;3.63;;;10.50;1.00;;;;;;10436327;28;20197;-75
2023/10/06 04:45:19;;;;;;;5.83;2.90;;;10.50;1.00;;;;;;10436129;28;20217;-76
2023/10/06 04:50:42;;;;;;;8.17;4.90;;;10.40;1.00;;;;;;10436736;28;20189;-77
2023/10/06 04:56:04;;;;;;;8.73;5.10;;;10.40;1.00;;;;;;10435515;28;20431;-76
2023/10/06 05:01:30;;;;;;;8.97;4.30;;;10.40;1.00;;;;;;10436216;28;20192;-76
2023/10/06 05:06:53;;;;;;;11.63;5.27;;;10.50;1.00;;;;;;10435192;28;20255;-75
2023/10/06 05:12:14;;;;;;;6.60;3.50;;;10.50;1.00;;;;;;10435479;28;20233;-76
2023/10/06 05:17:39;;;;;;;8.13;4.10;;;10.50;1.00;;;;;;10421023;28;20229;-76
2023/10/06 05:23:05;;;;;;;10.80;7.73;;;10.40;1.00;;;;;;10433613;28;20273;-76
2023/10/06 05:28:27;;;;;;;11.57;5.27;;;10.50;1.00;;;;;;10410821;28;20206;-78
2023/10/06 05:33:51;;;;;;;8.00;3.83;;;;;;;;;;10410131;28;20227;-76
2023/10/06 05:39:12;;;;;;;10.40;5.33;;;10.50;1.00;;;;;;10398077;28;20275;-77
2023/10/06 05:44:36;;;;;;;9.40;4.53;;;10.50;1.00;;;;;;10394560;28;20516;-78
2023/10/06 05:49:59;;;;;;;5.30;2.37;;;10.70;1.00;;;;;;10394592;28;20549;-79
2023/10/06 05:55:22;;;;;;;9.37;3.40;;;10.90;1.00;;;;;;10411965;28;20219;-77
2023/10/06 06:01:00;;;;;;;9.13;2.53;;;10.90;1.00;;;;;;10434700;28;20477;-79
2023/10/06 06:06:22;;;;;;;6.20;2.37;;;11.00;1.00;;;;;;10434826;28;20199;-77
2023/10/06 06:11:44;;;;;;;8.13;2.47;;;11.10;1.00;;;;;;10446962;28;20464;-77
2023/10/06 06:17:05;;;;;;;7.83;2.80;;;11.20;1.00;;;;;;10439581;28;20332;-77
2023/10/06 06:22:29;;;;;;;9.57;2.70;;;11.20;1.00;;;;;;10440510;28;20533;-77
2023/10/06 06:27:53;;;;;;;9.13;3.00;;;11.30;1.00;;;;;;10414070;28;20211;-79
2023/10/06 06:33:22;;;;;;;6.17;2.67;;;11.30;1.00;;;;;;10400855;28;20243;-77
2023/10/06 06:38:43;;;;;;;8.73;2.57;;;11.30;1.00;;;;;;10416942;28;20302;-76
2023/10/06 06:44:05;;;;;;;4.73;2.40;;;11.40;1.00;;;;;;10400623;28;20279;-79
2023/10/06 06:49:26;;;;;;;6.60;2.53;;;11.50;1.00;;;;;;10415025;28;20228;-80
2023/10/06 06:54:48;;;;;;;8.77;3.17;;;11.50;1.00;;;;;;10467687;28;20249;-79
2023/10/06 07:00:17;;;;;;;11.53;3.40;;;11.60;1.00;;;;;;10467564;28;20213;-79
2023/10/06 07:05:39;;;;;;;9.77;3.93;;;11.70;1.00;;;;;;10452494;28;20394;-76
2023/10/06 07:11:06;;;;;;;9.23;3.30;;;11.60;1.00;;;;;;10411422;28;20248;-77
2023/10/06 07:16:28;;;;;;;11.93;4.37;;;11.70;1.00;;;;;;10458477;28;20304;-79
2023/10/06 07:21:49;;;;;;;20.33;6.83;;;11.70;1.00;;;;;;10430129;28;20222;-78
2023/10/06 07:27:11;;;;;;;11.43;4.03;;;11.70;1.00;;;;;;10418288;28;20196;-76
2023/10/06 07:32:32;;;;;;;19.80;5.40;;;11.70;1.00;;;;;;10419948;28;20233;-75
2023/10/06 07:37:53;;;;;;;9.77;3.80;;;;;;;;;;10434128;28;20222;-76
2023/10/06 07:43:15;;;;;;;39.87;16.40;;;12.00;99.90;;;;;;10413946;28;20197;-78
2023/10/06 07:48:37;;;;;;;17.33;6.07;;;12.00;99.90;;;;;;10428771;28;20209;-78
2023/10/06 07:53:59;;;;;;;10.13;4.00;;;12.00;99.90;;;;;;10433115;28;20190;-77
2023/10/06 07:59:20;;;;;;;12.40;6.17;;;12.10;1.00;;;;;;10433230;28;20209;-79
2023/10/06 08:04:41;;;;;;;11.07;3.80;;;12.20;99.90;;;;;;10434002;28;20561;-79
2023/10/06 08:10:05;;;;;;;12.53;3.77;;;12.40;1.00;;;;;;10417722;28;20235;-77
2023/10/06 08:15:27;;;;;;;8.63;3.40;;;12.50;1.00;;;;;;10465233;28;20237;-79
2023/10/06 08:20:49;;;;;;;12.40;3.73;;;12.60;1.00;;;;;;10430177;28;20190;-77
2023/10/06 08:26:13;;;;;;;13.53;3.57;;;12.90;1.00;;;;;;10454046;28;20989;-77
2023/10/06 08:31:35;;;;;;;8.80;4.00;;;13.00;1.00;;;;;;10427448;28;20278;-79
2023/10/06 08:37:00;;;;;;;10.43;3.57;;;13.20;99.90;;;;;;10431964;28;20218;-78
2023/10/06 08:42:22;;;;;;;9.67;2.93;;;13.50;99.90;;;;;;10444853;28;20197;-81
2023/10/06 08:47:44;;;;;;;10.53;2.77;;;13.50;1.00;;;;;;10396075;28;20203;-81
2023/10/06 08:53:15;;;;;;;7.80;2.73;;;13.30;81.50;;;;;;10443690;28;20216;-84
2023/10/06 08:58:36;;;;;;;15.47;3.10;;;13.20;1.00;;;;;;10438061;28;20250;-76
2023/10/06 09:04:03;;;;;;;8.07;2.67;;;13.10;99.90;;;;;;10463027;28;20285;-80
2023/10/06 09:09:27;;;;;;;7.50;2.83;;;13.10;99.90;;;;;;10444901;28;20513;-76
2023/10/06 09:14:56;;;;;;;13.53;5.70;;;13.20;1.00;;;;;;10429081;28;20467;-78
2023/10/06 09:20:29;;;;;;;4.37;2.80;;;13.10;1.00;;;;;;10427796;28;20224;-79
2023/10/06 09:25:51;;;;;;;7.57;3.57;;;13.10;99.90;;;;;;10443467;28;20261;-75
2023/10/06 09:31:12;;;;;;;5.93;3.50;;;13.00;1.00;;;;;;10460284;28;20227;-78
2023/10/06 09:36:33;;;;;;;8.27;4.30;;;12.80;99.90;;;;;;10426853;28;20251;-78
2023/10/06 09:42:01;;;;;;;13.37;4.50;;;12.60;1.00;;;;;;10447976;28;20204;-79
2023/10/06 09:47:22;;;;;;;8.77;4.83;;;12.70;1.00;;;;;;10434246;28;20200;-79
2023/10/06 09:52:47;;;;;;;14.00;5.93;;;12.60;1.00;;;;;;10440637;28;20286;-79
2023/10/06 09:58:08;;;;;;;12.33;5.87;;;12.60;1.00;;;;;;10438734;28;20223;-79
2023/10/06 10:03:33;;;;;;;9.97;5.63;;;12.60;1.00;;;;;;10436788;28;20505;-76
2023/10/06 10:08:55;;;;;;;13.97;7.83;;;12.70;99.90;;;;;;10440683;28;20446;-77
2023/10/06 10:14:49;;;;;;;8.90;5.10;;;12.90;1.00;;;;;;10434963;28;20195;-83
2023/10/06 10:20:13;;;;;;;12.30;5.40;;;13.10;95.60;;;;;;10464039;28;20199;-77
2023/10/06 10:25:36;;;;;;;7.47;4.27;;;13.10;1.00;;;;;;10459918;28;20240;-78
2023/10/06 10:30:59;;;;;;;9.33;4.43;;;13.00;1.00;;;;;;10448106;28;20204;-78
2023/10/06 10:36:22;;;;;;;7.40;4.80;;;;;;;;;;10459648;28;20543;-80
2023/10/06 10:41:44;;;;;;;8.30;4.93;;;12.90;99.90;;;;;;10451750;28;20197;-80
2023/10/06 10:47:06;;;;;;;12.40;5.47;;;12.90;1.00;;;;;;10447489;28;20209;-79
2023/10/06 10:52:27;;;;;;;8.57;5.97;;;13.10;1.00;;;;;;10440112;28;20195;-79
2023/10/06 10:57:50;;;;;;;30.03;5.50;;;13.20;1.00;;;;;;10436474;28;20239;-76
2023/10/06 11:03:10;;;;;;;7.73;4.93;;;13.30;1.00;;;;;;10435794;28;20183;-79
2023/10/06 11:08:39;;;;;;;9.57;4.80;;;13.40;99.90;;;;;;10453836;28;20262;-74
2023/10/06 11:14:00;;;;;;;10.00;6.27;;;13.40;1.00;;;;;;10429569;28;20270;-74
2023/10/06 11:19:24;;;;;;;15.10;7.60;;;;;;;;;;10439126;28;20218;-74
2023/10/06 11:24:48;;;;;;;8.53;5.40;;;13.40;1.00;;;;;;10442280;28;20612;-75
2023/10/06 11:30:15;;;;;;;10.13;5.93;;;13.50;1.00;;;;;;10445290;28;20207;-80
2023/10/06 11:35:40;;;;;;;13.87;6.63;;;13.70;99.90;;;;;;10443506;28;20236;-78
2023/10/06 11:41:02;;;;;;;12.03;6.37;;;13.60;1.00;;;;;;10435236;28;20195;-79
2023/10/06 11:46:23;;;;;;;9.10;6.17;;;13.70;99.90;;;;;;10448679;28;20212;-80
2023/10/06 11:51:44;;;;;;;11.67;6.27;;;13.80;1.00;;;;;;10465772;28;20186;-77
2023/10/06 11:57:06;;;;;;;10.48;6.25;;;14.00;1.00;;;;;;10445018;28;20238;-77
2023/10/06 12:02:27;;;;;;;13.98;5.88;;;14.20;1.00;;;;;;10457636;28;20207;-75
2023/10/06 12:07:50;;;;;;;13.90;7.27;;;14.40;1.00;;;;;;10448703;28;20258;-85
2023/10/06 12:13:11;;;;;;;19.20;7.30;;;14.60;1.00;;;;;;10449392;28;20278;-78
2023/10/06 12:18:32;;;;;;;15.68;6.63;;;14.50;1.00;;;;;;10450057;28;20235;-78
2023/10/06 12:23:54;;;;;;;8.77;6.25;;;14.60;99.90;;;;;;10455896;28;20203;-77
2023/10/06 12:29:18;;;;;;;14.23;7.50;;;14.60;99.90;;;;;;10446434;28;20242;-76
2023/10/06 12:34:39;;;;;;;15.05;7.47;;;14.40;1.00;;;;;;10468786;28;20220;-81
2023/10/06 12:40:03;;;;;;;18.27;8.23;;;14.30;99.90;;;;;;10444678;28;20231;-83
2023/10/06 12:45:24;;;;;;;14.97;8.37;;;14.30;47.00;;;;;;10451137;28;20199;-77
2023/10/06 12:50:47;;;;;;;17.33;9.50;;;14.20;99.90;;;;;;10463905;28;20229;-79
2023/10/06 12:56:11;;;;;;;18.73;9.50;;;14.20;99.90;;;;;;10444281;28;20236;-77
2023/10/06 13:01:33;;;;;;;13.03;6.77;;;14.10;1.00;;;;;;10456114;28;20195;-77
2023/10/06 13:06:54;;;;;;;15.30;10.13;;;14.00;1.00;;;;;;10453139;28;20268;-78
2023/10/06 13:12:17;;;;;;;16.42;9.32;;;14.00;1.00;;;;;;10418731;28;20206;-78
2023/10/06 13:17:38;;;;;;;15.87;8.70;;;14.00;99.90;;;;;;10433116;28;20557;-79
2023/10/06 13:22:59;;;;;;;13.35;8.05;;;14.10;99.90;;;;;;10443139;28;20203;-78
2023/10/06 13:28:20;;;;;;;15.05;9.48;;;14.00;1.00;;;;;;10458309;28;20207;-79
2023/10/06 13:33:41;;;;;;;12.93;8.73;;;14.10;1.00;;;;;;10445732;28;20206;-77
2023/10/06 13:39:09;;;;;;;10.90;7.70;;;14.20;1.00;;;;;;10450254;28;20297;-78
2023/10/06 13:44:31;;;;;;;10.97;7.50;;;14.10;1.00;;;;;;10444325;28;20204;-77
2023/10/06 13:49:54;;;;;;;13.63;6.70;;;14.10;1.00;;;;;;10461579;28;20433;-79
2023/10/06 13:55:16;;;;;;;11.50;7.33;;;14.10;1.00;;;;;;10448781;28;20286;-77
2023/10/06 14:00:40;;;;;;;12.97;7.23;;;14.10;99.90;;;;;;10456096;28;20474;-84
2023/10/06 14:06:02;;;;;;;10.67;7.97;;;14.10;1.00;;;;;;10456462;28;20509;-80
2023/10/06 14:11:25;;;;;;;15.43;8.87;;;14.20;99.90;;;;;;10458550;28;20501;-79
2023/10/06 14:16:47;;;;;;;14.53;10.43;;;14.30;1.00;;;;;;10452295;28;20223;-74
2023/10/06 14:22:09;;;;;;;9.90;5.93;;;14.30;1.00;;;;;;10451619;28;20215;-78
2023/10/06 14:27:31;;;;;;;9.93;7.22;;;14.30;1.00;;;;;;10479117;28;20207;-80
2023/10/06 14:49:33;;;;;;;10.77;6.70;;;14.20;1.00;;;;;;10450483;28;20210;-78
2023/10/06 14:54:54;;;;;;;8.13;4.87;;;14.20;1.00;;;;;;10457380;28;20551;-80
2023/10/06 15:00:16;;;;;;;8.77;5.80;;;14.10;1.00;;;;;;10460900;28;20211;-80
2023/10/06 15:05:37;;;;;;;10.68;5.32;;;14.00;99.90;;;;;;10475382;28;20207;-80
2023/10/06 15:10:59;;;;;;;10.27;4.90;;;14.00;1.00;;;;;;10446468;28;20258;-78
2023/10/06 15:16:22;;;;;;;10.23;5.30;;;13.90;1.00;;;;;;10426089;28;20224;-78
2023/10/06 15:21:44;;;;;;;8.57;5.10;;;13.90;1.00;;;;;;10395584;28;20196;-77
2023/10/06 15:27:08;;;;;;;8.20;4.73;;;13.80;1.00;;;;;;10427125;28;20528;-77
2023/10/06 15:32:30;;;;;;;10.90;5.70;;;13.80;1.00;;;;;;10437623;28;20259;-77
2023/10/06 15:37:51;;;;;;;12.37;4.47;;;13.70;99.90;;;;;;10451650;28;20617;-74
2023/10/06 15:43:13;;;;;;;9.70;5.80;;;13.70;99.90;;;;;;10434474;28;20579;-78
2023/10/06 15:48:40;;;;;;;8.50;5.83;;;13.70;1.00;;;;;;10438376;28;20466;-77
2023/10/06 15:54:05;;;;;;;17.77;9.90;;;13.60;1.00;;;;;;10444539;28;20222;-77
2023/10/06 15:59:29;;;;;;;11.50;7.60;;;13.60;1.00;;;;;;10478795;28;20309;-77
2023/10/06 16:04:51;;;;;;;7.57;5.70;;;13.40;1.00;;;;;;10478406;28;20513;-77
2023/10/06 16:10:15;;;;;;;12.67;6.70;;;13.50;1.00;;;;;;10457577;28;20238;-77
2023/10/06 16:15:41;;;;;;;8.40;5.93;;;13.50;1.00;;;;;;10435453;28;20367;-77
2023/10/06 16:21:11;;;;;;;12.10;7.70;;;13.50;1.00;;;;;;10436569;28;20204;-79
2023/10/06 16:26:32;;;;;;;10.73;6.13;;;13.60;1.00;;;;;;10418877;28;20282;-77
2023/10/06 16:31:54;;;;;;;11.93;7.47;;;13.50;1.00;;;;;;10436761;28;20195;-77
2023/10/06 16:37:16;;;;;;;10.90;5.77;;;13.60;1.00;;;;;;10437006;28;20222;-78
2023/10/06 16:42:38;;;;;;;9.03;5.87;;;13.60;1.00;;;;;;10434563;28;20383;-78
2023/10/06 16:47:59;;;;;;;9.77;4.27;;;13.60;1.00;;;;;;10436769;28;20192;-76
2023/10/06 16:53:21;;;;;;;5.37;3.93;;;13.60;1.00;;;;;;10436567;28;20195;-77
2023/10/06 16:58:42;;;;;;;8.10;4.73;;;13.60;1.00;;;;;;10447358;28;20223;-77
2023/10/06 17:04:06;;;;;;;6.10;3.90;;;13.50;10.10;;;;;;10448871;28;20228;-79
2023/10/06 17:09:31;;;;;;;5.00;3.20;;;13.40;99.90;;;;;;10470545;28;20257;-79
2023/10/06 17:14:52;;;;;;;8.23;4.10;;;13.40;99.90;;;;;;10436016;28;20198;-79
2023/10/06 17:20:21;;;;;;;3.10;2.80;;;13.40;99.90;;;;;;10432775;28;20226;-78
2023/10/06 17:25:42;;;;;;;6.00;3.93;;;13.40;99.90;;;;;;10425036;28;20389;-78
2023/10/06 17:31:03;;;;;;;4.10;2.93;;;13.30;99.90;;;;;;10432146;28;20198;-77
2023/10/06 17:36:27;;;;;;;3.83;2.70;;;13.20;99.90;;;;;;10430233;28;20405;-76
2023/10/06 17:41:48;;;;;;;3.03;2.70;;;13.20;99.90;;;;;;10444108;28;20382;-78
2023/10/06 17:47:09;;;;;;;5.97;2.83;;;13.20;99.90;;;;;;10394454;28;20194;-79
2023/10/06 17:52:30;;;;;;;8.07;3.50;;;13.20;99.90;;;;;;10394462;28;20201;-78
2023/10/06 17:57:51;;;;;;;4.03;2.93;;;13.20;99.90;;;;;;10430963;28;20453;-79
2023/10/06 18:03:13;;;;;;;5.03;3.53;;;13.20;99.90;;;;;;10453943;28;20255;-78
2023/10/06 18:08:34;;;;;;;4.27;3.47;;;13.20;99.90;;;;;;10433945;28;20269;-78
2023/10/06 18:13:56;;;;;;;4.00;2.73;;;13.10;99.90;;;;;;10428390;28;20195;-78
2023/10/06 18:19:18;;;;;;;4.50;3.23;;;13.10;99.90;;;;;;10455672;28;20221;-79
2023/10/06 18:24:40;;;;;;;6.97;3.50;;;13.10;99.90;;;;;;10439722;28;20279;-79
2023/10/06 18:30:01;;;;;;;5.63;3.60;;;13.00;99.90;;;;;;10438590;28;20213;-79
2023/10/06 18:35:22;;;;;;;8.43;3.80;;;13.10;99.90;;;;;;10450639;28;20214;-79
2023/10/06 18:40:55;;;;;;;5.83;3.13;;;13.10;99.90;;;;;;10440307;28;20457;-78
2023/10/06 18:46:18;;;;;;;6.70;2.77;;;13.20;99.90;;;;;;10425065;28;20242;-80
2023/10/06 18:51:41;;;;;;;4.70;3.03;;;;;;;;;;10442858;28;20196;-78
2023/10/06 18:57:02;;;;;;;6.27;2.43;;;13.20;99.90;;;;;;10439618;28;20432;-78
2023/10/06 19:02:23;;;;;;;3.37;1.97;;;13.20;99.90;;;;;;10438135;28;20226;-78
2023/10/06 19:07:44;;;;;;;2.77;2.30;;;13.20;99.90;;;;;;10442097;28;20258;-78
2023/10/06 19:13:06;;;;;;;2.57;1.73;;;13.20;99.90;;;;;;10421081;28;20207;-78
2023/10/06 19:18:29;;;;;;;2.30;1.70;;;;;;;;;;10433877;28;20235;-78
2023/10/06 19:23:50;;;;;;;2.27;1.67;;;13.20;99.90;;;;;;10438832;28;20187;-79
2023/10/06 19:29:14;;;;;;;3.00;1.80;;;13.20;99.90;;;;;;10436012;28;20206;-78
2023/10/06 19:34:35;;;;;;;1.80;1.53;;;;;;;;;;10438610;28;20206;-78
2023/10/06 19:39:56;;;;;;;3.83;1.67;;;13.20;99.90;;;;;;10438160;28;20298;-76
2023/10/06 19:45:18;;;;;;;3.60;1.40;;;13.20;99.90;;;;;;10450384;28;20198;-79
2023/10/06 19:50:40;;;;;;;2.77;1.23;;;13.20;99.90;;;;;;10454422;28;20224;-78
2023/10/06 19:56:02;;;;;;;1.30;1.00;;;;;;;;;;10439541;28;20238;-79
2023/10/06 20:01:27;;;;;;;1.13;1.07;;;13.20;99.90;;;;;;10480024;28;20201;-79
2023/10/06 20:06:49;;;;;;;1.60;1.07;;;13.20;99.90;;;;;;10478307;28;20230;-78
2023/10/06 20:12:10;;;;;;;1.70;1.30;;;13.20;99.90;;;;;;10452309;28;20211;-79
2023/10/06 20:17:31;;;;;;;0.90;0.90;;;13.20;99.90;;;;;;10431660;28;20572;-78
2023/10/06 20:22:53;;;;;;;2.63;1.90;;;13.20;99.90;;;;;;10407889;28;20442;-78
2023/10/06 20:28:14;;;;;;;4.60;2.80;;;13.30;99.90;;;;;;10451566;28;20256;-77
2023/10/06 20:33:35;;;;;;;3.20;2.10;;;13.30;99.90;;;;;;10433332;28;20197;-77
2023/10/06 20:38:56;;;;;;;2.40;2.20;;;13.30;99.90;;;;;;10417869;28;20222;-78
2023/10/06 20:44:19;;;;;;;2.60;2.07;;;13.20;99.90;;;;;;10435912;28;20410;-79
2023/10/06 20:49:41;;;;;;;4.93;3.20;;;13.30;99.90;;;;;;10441814;28;20233;-77
2023/10/06 20:55:03;;;;;;;2.30;2.03;;;13.30;99.90;;;;;;10476758;28;20190;-76
2023/10/06 21:00:26;;;;;;;2.40;2.03;;;13.30;99.90;;;;;;10476880;28;20524;-77
2023/10/06 21:05:48;;;;;;;1.83;1.33;;;13.30;99.90;;;;;;10462585;28;20197;-78
2023/10/06 21:11:12;;;;;;;1.50;1.40;;;13.30;99.90;;;;;;10472180;28;20242;-77
2023/10/06 21:16:35;;;;;;;1.77;1.60;;;13.40;99.90;;;;;;10451504;28;20229;-78
2023/10/06 21:21:56;;;;;;;2.20;1.87;;;13.40;99.90;;;;;;10434199;28;20251;-79
2023/10/06 21:27:17;;;;;;;1.67;1.20;;;13.40;99.90;;;;;;10436210;28;20382;-78
2023/10/06 21:32:39;;;;;;;1.23;1.10;;;13.40;99.90;;;;;;10435378;28;20194;-77
2023/10/06 21:38:00;;;;;;;3.47;1.40;;;13.50;99.90;;;;;;10435125;28;20218;-76
2023/10/06 21:43:21;;;;;;;1.37;1.27;;;13.50;99.90;;;;;;10436012;28;20193;-79
2023/10/06 21:48:42;;;;;;;2.47;1.70;;;;;;;;;;10442238;28;20216;-79
2023/10/06 21:54:04;;;;;;;1.70;1.27;;;;;;;;;;10443620;28;20189;-78
2023/10/06 21:59:25;;;;;;;2.10;1.70;;;13.50;99.90;;;;;;10456439;28;20218;-77
2023/10/06 22:04:47;;;;;;;2.30;1.70;;;13.50;99.90;;;;;;10453786;28;20646;-78
2023/10/06 22:10:11;;;;;;;1.90;1.73;;;13.60;99.90;;;;;;10443006;28;20300;-78
2023/10/06 22:15:32;;;;;;;4.23;3.20;;;13.60;99.90;;;;;;10443928;28;20215;-79
2023/10/06 22:20:53;;;;;;;3.87;3.00;;;13.60;99.90;;;;;;10439340;28;20270;-76
2023/10/06 22:26:15;;;;;;;3.70;2.60;;;13.70;99.90;;;;;;10457974;28;20496;-79
2023/10/06 22:31:36;;;;;;;5.77;3.23;;;13.70;99.90;;;;;;10455405;28;20194;-77
2023/10/06 22:36:58;;;;;;;6.03;3.50;;;13.70;99.90;;;;;;10464589;28;20226;-79
2023/10/06 22:42:21;;;;;;;5.47;3.90;;;13.70;99.90;;;;;;10448054;28;20224;-76
2023/10/06 22:47:43;;;;;;;6.67;4.03;;;13.80;99.90;;;;;;10399172;28;20451;-76
2023/10/06 22:53:05;;;;;;;6.38;4.40;;;13.80;99.90;;;;;;10474539;28;20256;-78
2023/10/06 22:58:26;;;;;;;7.97;4.40;;;13.80;99.90;;;;;;10481547;28;20226;-78
2023/10/06 23:03:48;;;;;;;5.43;3.87;;;13.90;99.90;;;;;;10475979;28;20211;-79
2023/10/06 23:09:12;;;;;;;7.73;3.90;;;13.90;99.90;;;;;;10481727;28;20237;-79
2023/10/06 23:14:34;;;;;;;5.37;3.73;;;13.90;99.90;;;;;;10437999;28;20275;-79
2023/10/06 23:19:55;;;;;;;7.90;3.70;;;14.00;99.90;;;;;;10437805;28;20225;-77
2023/10/06 23:25:19;;;;;;;5.50;3.30;;;14.00;99.90;;;;;;10440507;28;20217;-78
2023/10/06 23:30:41;;;;;;;6.55;3.40;;;14.10;99.90;;;;;;10439808;28;20241;-79
2023/10/06 23:36:04;;;;;;;7.10;3.60;;;14.10;99.90;;;;;;10436915;28;20244;-77
2023/10/06 23:41:25;;;;;;;5.90;3.00;;;14.10;99.90;;;;;;10452657;28;20513;-79
2023/10/06 23:46:47;;;;;;;6.83;4.33;;;14.10;99.90;;;;;;10439273;28;20244;-78
2023/10/06 23:52:18;;;;;;;6.63;3.20;;;14.10;99.90;;;;;;10459485;28;20277;-79
2023/10/06 23:57:40;;;;;;;4.00;2.87;;;14.00;99.90;;;;;;10479912;28;20214;-79
